createdAt,value
2019-05-07T00:02:36.036Z,56.93
2019-05-07T00:05:25.862Z,56.52
2019-05-07T00:07:56.231Z,56.67
2019-05-07T00:10:28.228Z,57.00
2019-05-07T00:12:58.599Z,57.13
2019-05-07T00:15:28.968Z,56.93
2019-05-07T00:17:59.421Z,56.61
2019-05-07T00:20:49.236Z,56.83
2019-05-07T00:23:39.004Z,56.94
2019-05-07T00:26:28.802Z,57.51
2019-05-07T00:29:18.590Z,57.42
2019-05-07T00:32:08.421Z,57.49
2019-05-07T00:43:32.374Z,58.47
2019-05-07T00:48:57.903Z,58.31
2019-05-07T00:51:47.199Z,58.34
2019-05-07T00:54:36.976Z,57.78
2019-05-07T00:57:26.729Z,56.96
2019-05-07T00:59:57.093Z,56.64
2019-05-07T01:02:27.428Z,56.45
2019-05-07T01:04:57.784Z,56.35
2019-05-07T01:07:28.124Z,56.14
2019-05-07T01:10:02.232Z,56.52
2019-05-07T01:12:53.134Z,56.94
2019-05-07T01:15:46.779Z,57.38
2019-05-07T01:18:18.823Z,57.30
2019-05-07T01:20:49.209Z,57.28
2019-05-07T01:23:19.560Z,57.07
2019-05-07T01:25:52.593Z,57.06
2019-05-07T01:28:53.515Z,57.05
2019-05-07T01:37:23.205Z,57.46
2019-05-07T01:40:05.432Z,57.89
2019-05-07T01:42:36.693Z,58.29
2019-05-07T01:45:27.238Z,58.51
2019-05-07T01:47:57.592Z,58.75
2019-05-07T01:50:47.320Z,58.77
2019-05-07T01:53:17.676Z,58.82
2019-05-07T01:55:48.054Z,58.86
2019-05-07T01:58:37.829Z,58.60
2019-05-07T02:01:27.575Z,58.92
2019-05-07T02:04:36.214Z,59.06
2019-05-07T02:07:25.439Z,58.95
2019-05-07T02:10:34.302Z,59.21
2019-05-07T02:13:24.051Z,59.46
2019-05-07T02:16:00.993Z,59.33
2019-05-07T02:18:45.901Z,59.22
2019-05-07T02:21:35.705Z,59.77
2019-05-07T02:24:25.459Z,59.94
2019-05-07T02:27:15.227Z,60.41
2019-05-07T02:29:45.611Z,60.76
2019-05-07T02:32:35.404Z,60.66
2019-05-07T02:35:25.155Z,60.94
2019-05-07T02:38:34.156Z,61.42
2019-05-07T02:44:14.074Z,62.06
2019-05-07T02:53:06.655Z,63.02
2019-05-07T02:55:57.367Z,63.54
2019-05-07T02:58:27.715Z,64.26
2019-05-07T03:04:25.060Z,65.38
2019-05-07T03:07:05.245Z,65.45
2019-05-07T03:09:54.987Z,65.31
2019-05-07T03:12:25.364Z,65.84
2019-05-07T03:14:55.692Z,66.49
2019-05-07T03:17:26.041Z,66.21
2019-05-07T03:25:56.041Z,66.80
2019-05-07T03:28:26.585Z,67.31
2019-05-07T03:34:25.556Z,67.08
2019-05-07T03:39:58.444Z,67.04
2019-05-07T03:45:58.303Z,66.45
2019-05-07T03:48:32.988Z,66.99
2019-05-07T03:51:13.363Z,66.73
2019-05-07T03:53:56.487Z,66.26
2019-05-07T03:56:26.837Z,66.24
2019-05-07T03:58:57.180Z,66.37
2019-05-07T04:01:27.552Z,66.36
2019-05-07T04:03:57.892Z,65.76
2019-05-07T04:06:47.654Z,65.82
2019-05-07T04:09:17.981Z,65.54
2019-05-07T04:11:48.345Z,65.86
2019-05-07T04:14:18.685Z,66.19
2019-05-07T04:16:49.083Z,66.42
2019-05-07T04:19:38.819Z,66.46
2019-05-07T04:22:09.192Z,66.84
2019-05-07T04:25:17.799Z,66.58
2019-05-07T04:28:14.177Z,66.62
2019-05-07T04:30:44.580Z,66.37
2019-05-07T04:38:48.931Z,65.39
2019-05-07T04:41:38.800Z,65.23
2019-05-07T04:44:09.145Z,65.18
2019-05-07T04:46:43.501Z,64.74
2019-05-07T04:49:23.832Z,64.50
2019-05-07T04:55:03.668Z,62.79
2019-05-07T04:57:53.314Z,61.96
2019-05-07T05:00:34.905Z,61.15
2019-05-07T05:03:24.415Z,60.37
2019-05-07T05:06:14.225Z,59.40
2019-05-07T05:09:04.292Z,58.16
2019-05-07T05:11:43.894Z,58.32
2019-05-07T05:14:25.048Z,57.57
2019-05-07T05:16:55.406Z,57.31
2019-05-07T05:19:45.141Z,57.17
2019-05-07T05:25:33.262Z,56.64
2019-05-07T05:28:03.620Z,56.33
2019-05-07T05:30:52.941Z,56.34
2019-05-07T05:33:42.720Z,55.39
2019-05-07T05:36:13.129Z,53.77
2019-05-07T05:38:43.470Z,53.42
2019-05-07T05:41:13.841Z,52.93
2019-05-07T05:44:22.835Z,52.75
2019-05-07T05:46:53.239Z,51.30
2019-05-07T05:49:23.634Z,51.51
2019-05-07T05:52:14.480Z,50.98
2019-05-07T06:00:59.701Z,49.89
2019-05-07T06:03:48.950Z,49.75
2019-05-07T06:07:10.489Z,49.48
2019-05-07T06:12:56.888Z,48.88
2019-05-07T06:16:05.548Z,50.27
2019-05-07T06:18:54.850Z,49.08
2019-05-07T06:22:03.496Z,48.55
2019-05-07T06:24:59.697Z,48.24
2019-05-07T06:27:32.391Z,48.90
2019-05-07T06:30:13.798Z,48.68
2019-05-07T06:32:44.656Z,48.50
2019-05-07T06:41:15.800Z,48.04
2019-05-07T06:43:52.933Z,48.22
2019-05-07T06:46:23.338Z,47.75
2019-05-07T06:48:55.454Z,48.01
2019-05-07T06:51:47.793Z,48.36
2019-05-07T06:54:28.442Z,48.09
2019-05-07T06:56:58.828Z,48.06
2019-05-07T06:59:48.157Z,48.03
2019-05-07T07:02:56.807Z,48.25
2019-05-07T07:06:05.541Z,48.29
2019-05-07T07:14:22.725Z,48.08
2019-05-07T07:17:04.437Z,47.67
2019-05-07T07:19:36.192Z,47.49
2019-05-07T07:22:26.234Z,45.52
2019-05-07T07:24:56.585Z,45.33
2019-05-07T07:27:26.944Z,46.49
2019-05-07T07:30:16.240Z,44.47
2019-05-07T07:35:32.125Z,43.27
2019-05-07T07:38:32.850Z,43.43
2019-05-07T07:41:32.788Z,41.43
2019-05-07T07:44:03.196Z,41.92
2019-05-07T07:46:33.598Z,42.21
2019-05-07T07:49:23.377Z,41.96
2019-05-07T07:51:53.774Z,41.31
2019-05-07T07:54:43.511Z,41.98
2019-05-07T07:57:32.802Z,42.10
2019-05-07T08:00:23.385Z,40.75
2019-05-07T08:03:02.633Z,40.02
2019-05-07T08:05:33.047Z,38.93
2019-05-07T08:08:03.518Z,39.74
2019-05-07T08:10:33.870Z,39.59
2019-05-07T08:13:23.641Z,39.31
2019-05-07T08:15:54.006Z,39.42
2019-05-07T08:21:08.038Z,36.27
2019-05-07T08:23:50.206Z,38.26
2019-05-07T08:26:39.980Z,36.04
2019-05-07T08:29:11.881Z,35.59
2019-05-07T08:32:22.323Z,35.03
2019-05-07T08:38:02.357Z,35.03
2019-05-07T08:40:45.060Z,35.85
2019-05-07T08:43:15.417Z,36.90
2019-05-07T08:46:04.669Z,37.61
2019-05-07T08:51:35.449Z,37.94
2019-05-07T08:54:07.510Z,36.91
2019-05-07T08:59:43.695Z,36.91
2019-05-07T09:02:32.849Z,37.78
2019-05-07T09:05:03.250Z,36.96
2019-05-07T09:07:52.991Z,36.54
2019-05-07T09:10:42.774Z,37.76
2019-05-07T09:13:13.135Z,38.54
2019-05-07T09:15:43.511Z,38.37
2019-05-07T09:18:33.231Z,38.19
2019-05-07T09:21:22.988Z,36.73
2019-05-07T09:24:12.757Z,36.91
2019-05-07T09:27:02.779Z,37.29
2019-05-07T09:29:59.081Z,37.43
2019-05-07T09:35:58.179Z,36.22
2019-05-07T09:38:28.551Z,34.79
2019-05-07T09:40:58.941Z,35.31
2019-05-07T09:43:48.709Z,36.61
2019-05-07T09:46:20.719Z,37.73
2019-05-07T09:49:03.119Z,37.48
2019-05-07T09:51:39.147Z,35.29
2019-05-07T09:54:09.530Z,36.92
2019-05-07T09:56:42.122Z,36.83
2019-05-07T09:59:24.876Z,35.40
2019-05-07T10:01:55.237Z,36.26
2019-05-07T10:04:45.069Z,37.54
2019-05-07T10:07:15.466Z,37.13
2019-05-07T10:16:12.678Z,36.82
2019-05-07T10:18:53.858Z,37.59
2019-05-07T10:21:25.914Z,37.79
2019-05-07T10:23:56.278Z,37.64
2019-05-07T10:29:29.151Z,36.80
2019-05-07T10:31:59.522Z,36.52
2019-05-07T10:37:32.089Z,36.07
2019-05-07T10:43:24.711Z,36.19
2019-05-07T10:46:33.330Z,36.08
2019-05-07T10:52:27.677Z,34.97
2019-05-07T10:55:00.049Z,33.87
2019-05-07T10:57:42.224Z,32.30
2019-05-07T11:03:44.949Z,31.62
2019-05-07T11:06:34.733Z,32.26
2019-05-07T11:09:24.505Z,33.70
2019-05-07T11:12:14.281Z,34.92
2019-05-07T11:15:04.320Z,34.70
2019-05-07T11:20:32.043Z,35.17
2019-05-07T11:23:13.857Z,34.58
2019-05-07T11:26:03.641Z,33.61
2019-05-07T11:28:53.412Z,32.81
2019-05-07T11:31:43.199Z,31.64
2019-05-07T11:37:32.661Z,29.78
2019-05-07T11:43:44.075Z,30.94
2019-05-07T11:46:52.810Z,30.71
2019-05-07T11:50:03.197Z,30.01
2019-05-07T11:55:38.980Z,30.72
2019-05-07T11:58:09.399Z,31.31
2019-05-07T12:00:44.349Z,31.71
2019-05-07T12:03:16.374Z,30.93
2019-05-07T12:05:46.758Z,31.11
2019-05-07T12:08:17.125Z,31.23
2019-05-07T12:10:47.515Z,31.62
2019-05-07T12:13:18.082Z,30.69
2019-05-07T12:15:48.603Z,30.13
2019-05-07T12:18:38.410Z,30.04
2019-05-07T12:21:18.299Z,30.64
2019-05-07T12:24:02.101Z,30.71
2019-05-07T12:29:27.519Z,31.47
2019-05-07T12:32:25.158Z,31.16
2019-05-07T12:35:17.173Z,30.73
2019-05-07T12:37:49.531Z,30.10
2019-05-07T12:40:32.632Z,30.81
2019-05-07T12:43:22.385Z,30.19
2019-05-07T12:46:12.292Z,30.94
2019-05-07T12:48:42.743Z,30.62
2019-05-07T12:51:13.127Z,30.93
2019-05-07T12:56:51.988Z,29.35
2019-05-07T12:59:34.832Z,28.81
2019-05-07T13:05:18.922Z,31.52
2019-05-07T13:10:35.313Z,29.61
2019-05-07T13:13:05.788Z,30.34
2019-05-07T13:15:36.155Z,29.56
2019-05-07T13:18:25.923Z,27.90
2019-05-07T13:20:56.281Z,26.00
2019-05-07T13:23:26.640Z,25.93
2019-05-07T13:25:57.054Z,26.69
2019-05-07T13:28:27.470Z,26.76
2019-05-07T13:43:23.070Z,26.37
2019-05-07T13:46:18.945Z,25.75
2019-05-07T13:49:08.724Z,25.26
2019-05-07T13:51:39.218Z,25.20
2019-05-07T13:54:28.967Z,25.47
2019-05-07T13:56:59.309Z,26.06
2019-05-07T13:59:49.097Z,26.57
2019-05-07T14:02:38.869Z,25.77
2019-05-07T14:05:28.643Z,24.64
2019-05-07T14:11:02.847Z,25.27
2019-05-07T14:17:08.067Z,25.65
2019-05-07T14:19:38.462Z,25.01
2019-05-07T14:22:16.266Z,25.67
2019-05-07T14:24:52.949Z,24.15
2019-05-07T14:27:34.718Z,22.23
2019-05-07T14:30:05.751Z,20.91
2019-05-07T14:32:55.029Z,20.12
2019-05-07T14:35:53.966Z,19.41
2019-05-07T14:38:32.068Z,18.97
2019-05-07T14:41:14.064Z,19.33
2019-05-07T14:46:54.501Z,18.74
2019-05-07T14:49:36.232Z,19.51
2019-05-07T14:52:08.245Z,17.81
2019-05-07T14:54:38.599Z,17.29
2019-05-07T14:57:09.101Z,17.52
2019-05-07T14:59:39.460Z,17.88
2019-05-07T15:02:29.356Z,19.06
2019-05-07T15:08:21.968Z,18.74
2019-05-07T15:11:03.609Z,18.14
2019-05-07T15:13:53.417Z,17.50
2019-05-07T15:16:43.196Z,17.74
2019-05-07T15:19:13.670Z,23.04
2019-05-07T15:21:44.049Z,24.76
2019-05-07T15:24:33.843Z,25.43
2019-05-07T15:33:09.091Z,28.17
2019-05-07T15:35:58.878Z,28.54
2019-05-07T15:38:29.275Z,29.26
2019-05-07T15:41:19.110Z,28.67
2019-05-07T15:44:08.890Z,27.18
2019-05-07T15:49:42.776Z,20.70
2019-05-07T15:52:32.755Z,19.22
2019-05-07T15:55:03.209Z,17.95
2019-05-07T15:57:33.685Z,16.63
2019-05-07T16:05:35.715Z,16.95
2019-05-07T16:10:52.957Z,17.21
2019-05-07T16:16:30.773Z,16.37
2019-05-07T16:19:20.069Z,16.99
2019-05-07T16:24:56.516Z,17.75
2019-05-07T16:27:46.340Z,18.11
2019-05-07T16:30:16.829Z,17.95
2019-05-07T16:33:06.592Z,18.12
2019-05-07T16:35:39.349Z,17.28
2019-05-07T16:38:09.750Z,17.40
2019-05-07T16:40:59.714Z,18.26
2019-05-07T16:43:49.481Z,19.62
2019-05-07T16:46:39.271Z,20.53
2019-05-07T16:49:11.843Z,21.04
2019-05-07T16:51:52.841Z,21.65
2019-05-07T16:54:23.236Z,22.36
2019-05-07T16:57:33.671Z,22.89
2019-05-07T17:06:12.397Z,25.42
2019-05-07T17:09:06.955Z,26.03
2019-05-07T17:11:37.397Z,26.32
2019-05-07T17:14:07.776Z,26.11
2019-05-07T17:16:39.775Z,26.59
2019-05-07T17:19:29.506Z,26.14
2019-05-07T17:22:19.298Z,26.74
2019-05-07T17:24:51.914Z,28.08
2019-05-07T17:27:32.595Z,29.47
2019-05-07T17:30:03.085Z,30.65
2019-05-07T17:32:33.511Z,31.45
2019-05-07T17:35:23.309Z,32.35
2019-05-07T17:38:13.145Z,33.54
2019-05-07T17:40:43.511Z,34.16
2019-05-07T17:43:33.298Z,34.68
2019-05-07T17:46:23.172Z,35.72
2019-05-07T17:48:53.682Z,35.86
2019-05-07T17:51:42.945Z,36.45
2019-05-07T17:54:32.763Z,37.27
2019-05-07T17:57:03.106Z,38.08
2019-05-07T17:59:52.886Z,38.28
2019-05-07T18:03:02.609Z,38.57
2019-05-07T18:05:39.712Z,38.79
2019-05-07T18:08:12.513Z,39.64
2019-05-07T18:11:02.451Z,40.57
2019-05-07T18:13:39.434Z,40.80
2019-05-07T18:18:59.664Z,41.54
2019-05-07T18:21:49.456Z,41.27
2019-05-07T18:24:39.261Z,41.67
2019-05-07T18:29:53.895Z,42.10
2019-05-07T18:32:44.807Z,42.90
2019-05-07T18:35:34.646Z,42.98
2019-05-07T18:38:24.488Z,43.24
2019-05-07T18:41:14.327Z,44.05
2019-05-07T18:43:44.755Z,44.08
2019-05-07T18:46:34.141Z,44.51
2019-05-07T18:49:23.946Z,44.56
2019-05-07T18:52:13.768Z,44.79
2019-05-07T18:54:44.142Z,46.67
2019-05-07T18:57:33.981Z,47.71
2019-05-07T19:02:48.345Z,49.65
2019-05-07T19:05:19.465Z,47.86
2019-05-07T19:08:12.395Z,48.25
2019-05-07T19:10:55.251Z,48.13
2019-05-07T19:13:27.371Z,49.83
2019-05-07T19:16:18.182Z,50.66
2019-05-07T19:18:48.811Z,51.12
2019-05-07T19:21:19.198Z,51.73
2019-05-07T19:23:49.675Z,54.92
2019-05-07T19:26:20.049Z,52.50
2019-05-07T19:28:50.483Z,52.43
2019-05-07T19:31:21.985Z,52.51
2019-05-07T19:34:43.316Z,52.65
2019-05-07T19:37:33.119Z,52.95
2019-05-07T19:40:03.529Z,53.51
2019-05-07T19:42:33.907Z,53.60
2019-05-07T19:45:24.445Z,53.50
2019-05-07T19:48:15.233Z,54.98
2019-05-07T19:50:45.646Z,55.12
2019-05-07T19:53:16.025Z,56.16
2019-05-07T19:56:05.380Z,57.37
2019-05-07T19:58:35.769Z,57.57
2019-05-07T20:04:13.392Z,57.67
2019-05-07T20:06:55.929Z,58.40
2019-05-07T20:12:25.832Z,59.59
2019-05-07T20:14:56.247Z,60.35
2019-05-07T20:17:26.663Z,60.50
2019-05-07T20:20:17.509Z,60.89
2019-05-07T20:23:08.200Z,61.34
2019-05-07T20:25:58.008Z,61.92
2019-05-07T20:28:28.373Z,64.12
2019-05-07T20:30:58.839Z,64.37
2019-05-07T20:33:48.597Z,65.13
2019-05-07T20:36:20.634Z,66.31
2019-05-07T20:39:12.629Z,67.16
2019-05-07T20:41:59.913Z,67.75
2019-05-07T20:44:32.362Z,69.24
2019-05-07T20:47:07.894Z,69.44
2019-05-07T20:49:38.273Z,69.59
2019-05-07T20:52:28.057Z,69.51
2019-05-07T20:55:27.977Z,69.74
2019-05-07T20:57:55.060Z,70.25
2019-05-07T21:00:44.856Z,70.41
2019-05-07T21:03:34.182Z,70.74
2019-05-07T21:06:04.605Z,69.71
2019-05-07T21:08:35.087Z,69.13
2019-05-07T21:11:05.487Z,69.06
2019-05-07T21:13:35.883Z,68.87
2019-05-07T21:16:25.706Z,69.26
2019-05-07T21:19:15.507Z,69.41
2019-05-07T21:22:05.330Z,69.46
2019-05-07T21:24:55.160Z,69.79
2019-05-07T21:27:25.543Z,70.17
2019-05-07T21:29:55.979Z,70.55
2019-05-07T21:32:26.527Z,70.65
2019-05-07T21:35:16.319Z,70.90
2019-05-07T21:38:06.326Z,70.49
2019-05-07T21:40:36.801Z,70.80
2019-05-07T21:43:07.171Z,71.27
2019-05-07T21:45:56.954Z,71.16
2019-05-07T21:48:46.689Z,71.69
2019-05-07T21:51:18.710Z,71.29
2019-05-07T21:54:27.367Z,71.16
2019-05-07T21:57:16.622Z,71.65
2019-05-07T22:06:10.594Z,72.10
2019-05-07T22:08:52.519Z,72.73
2019-05-07T22:11:34.803Z,72.81
2019-05-07T22:14:05.386Z,73.10
2019-05-07T22:16:35.761Z,73.41
2019-05-07T22:19:25.532Z,73.63
2019-05-07T22:21:56.021Z,73.98
2019-05-07T22:24:26.384Z,74.02
2019-05-07T22:27:16.162Z,74.19
2019-05-07T22:33:08.806Z,74.89
2019-05-07T22:35:41.263Z,74.52
2019-05-07T22:38:32.385Z,74.95
2019-05-07T22:41:13.912Z,75.53
2019-05-07T22:43:45.944Z,75.76
2019-05-07T22:49:19.575Z,75.85
2019-05-07T22:51:49.976Z,76.17
2019-05-07T22:54:39.774Z,76.67
2019-05-07T23:03:04.486Z,76.94
2019-05-07T23:05:34.845Z,76.93
2019-05-07T23:08:05.234Z,77.10
2019-05-07T23:13:37.688Z,77.68
2019-05-07T23:16:08.242Z,77.67
2019-05-07T23:18:38.707Z,77.98
2019-05-07T23:21:09.144Z,78.48
2019-05-07T23:23:58.923Z,78.76
2019-05-07T23:26:29.364Z,79.18
2019-05-07T23:29:02.435Z,79.29
2019-05-07T23:31:44.298Z,79.44
2019-05-07T23:34:14.682Z,80.16
2019-05-07T23:36:45.136Z,80.86
2019-05-07T23:45:02.012Z,83.00
2019-05-07T23:47:44.715Z,83.67
2019-05-07T23:50:28.169Z,83.95
2019-05-07T23:52:58.797Z,84.46
2019-05-07T23:55:29.271Z,84.69
2019-05-07T23:57:59.703Z,85.12
